Overview Statistics Trail Chart Weather Telemetry Raw packets
 

This is the latest recevied weather packets stored in our database for station/object 4S6DRJ-13. If no packets are shown the sender has not sent any weather packets the latest 10 day(s).

<< 293 294 295 296 297 298 299 >>
Time Temp. Humidity Pressure Rain* Wind** Luminosity Snow
1788036714 27.78° C 83% 1009.6 hPa 0 mm 0.89 m/s, 217° 0 W/m² -
1788036653 27.78° C 83% 1009.3 hPa 0 mm 1.79 m/s, 186° 0 W/m² -
1788036592 27.78° C 83% 1009.3 hPa 0 mm 2.68 m/s, 230° 0 W/m² -
1788036531 27.78° C 83% 1009.4 hPa 0 mm 0.45 m/s, 239° 0 W/m² -
1788036470 27.78° C 83% 1009.3 hPa 0 mm 1.79 m/s, 237° 0 W/m² -
1788036409 27.78° C 83% 1009.4 hPa 0 mm 0.89 m/s, 191° 0 W/m² -
1788036348 27.78° C 83% 1009.5 hPa 0 mm 0.45 m/s, 302° 0 W/m² -
1788036287 27.78° C 83% 1009.5 hPa 0 mm 0.45 m/s, 278° 0 W/m² -
1788036226 27.78° C 83% 1009.4 hPa 0 mm 0.45 m/s, 231° 0 W/m² -
1788036165 27.78° C 83% 1009.5 hPa 0 mm 1.34 m/s, 273° 0 W/m² -
1788036104 27.78° C 83% 1009.4 hPa 0 mm 0.89 m/s, 245° 0 W/m² -
1788036043 27.78° C 83% 1009.4 hPa 0 mm 0.45 m/s, 232° 0 W/m² -
1788035982 27.78° C 83% 1009.5 hPa 0 mm 1.34 m/s, 340° 0 W/m² -
1788035921 27.78° C 83% 1009.6 hPa 0 mm 1.34 m/s, 237° 0 W/m² -
1788035860 27.78° C 83% 1009.5 hPa 0 mm 1.79 m/s, 256° 0 W/m² -
1788035799 27.78° C 83% 1009.7 hPa 0 mm 0.45 m/s, 251° 0 W/m² -
1788035738 27.78° C 83% 1009.7 hPa 0 mm 0.89 m/s, 246° 0 W/m² -
1788035678 27.78° C 83% 1009.4 hPa 0 mm 2.24 m/s, 153° 0 W/m² -
1788035616 27.78° C 83% 1009.5 hPa 0 mm 1.34 m/s, 262° 0 W/m² -
1788035555 27.78° C 83% 1009.7 hPa 0 mm 0.89 m/s, 240° 0 W/m² -
1788035494 27.78° C 84% 1009.5 hPa 0 mm 0.45 m/s, 215° 0 W/m² -
1788035433 27.78° C 84% 1009.5 hPa 0 mm 1.34 m/s, 193° 0 W/m² -
1788035372 27.78° C 84% 1009.6 hPa 0 mm 1.34 m/s, 222° 0 W/m² -
1788035311 27.78° C 84% 1009.6 hPa 0 mm 1.34 m/s, 204° 0 W/m² -
1788035250 27.78° C 84% 1009.5 hPa 0 mm 1.79 m/s, 119° 0 W/m² -

* Rain latest hour (hover to see other rain measurements)
** Current wind speed in m/s (hover to see current wind gust speed)